Saltar para o conteúdo principal

Vila Real (Cidade)

ID 1240566 · 41.3090, -7.7405 mapa

Última leitura · 2026-05-09 19:00 (Europe/Lisbon)

Temperatura
12.7 °C
Humidade
89 %
Pressão
Precipitação
0.2 mm
Radiação
Velocidade do vento
2.2 km/h
Direcção do vento
S · Sul

Histórico de 24 horas

Hora (Europe/Lisbon) Temperatura Humidade Pressão Chuva Vento Direcção
2026-05-09 19:00 12.7 °C 89 % 0.2 mm 2.2 km/h S
2026-05-09 18:00 11.3 °C 96 % 0.1 mm 3.2 km/h E
2026-05-09 17:00 12.5 °C 89 % 0.1 mm 5.8 km/h W
2026-05-09 16:00 13.9 °C 81 % 0.1 mm 2.9 km/h SE
2026-05-09 15:00 14.2 °C 77 % 0.0 mm 5.8 km/h E
2026-05-09 14:00 15.1 °C 72 % 0.0 mm 5.8 km/h E
2026-05-09 13:00 14.2 °C 75 % 0.2 mm 5.0 km/h SE
2026-05-09 12:00 12.1 °C 85 % 0.2 mm 7.6 km/h E
2026-05-09 11:00 13.0 °C 75 % 0.1 mm 5.0 km/h E
2026-05-09 10:00 14.4 °C 67 % 0.0 mm 6.1 km/h E
2026-05-09 09:00 14.0 °C 72 % 0.0 mm 6.1 km/h E
2026-05-09 08:00 12.7 °C 77 % 0.0 mm 5.8 km/h N
2026-05-09 07:00 11.8 °C 80 % 0.0 mm 7.6 km/h NE
2026-05-09 06:00 11.9 °C 79 % 0.0 mm 3.6 km/h NE
2026-05-09 05:00 11.9 °C 82 % 0.0 mm 2.9 km/h E
2026-05-09 04:00 12.1 °C 81 % 0.0 mm 3.2 km/h W
2026-05-09 03:00 12.3 °C 80 % 0.0 mm 2.5 km/h SW
2026-05-09 02:00 12.9 °C 75 % 0.1 mm 6.1 km/h NE
2026-05-09 01:00 13.3 °C 69 % 0.0 mm 4.0 km/h W
2026-05-09 00:00 13.0 °C 71 % 0.0 mm 6.8 km/h NE
2026-05-08 23:00 12.5 °C 70 % 0.0 mm 8.6 km/h NE
2026-05-08 22:00 13.0 °C 69 % 0.0 mm 9.4 km/h NE
2026-05-08 21:00 13.7 °C 67 % 0.0 mm 6.1 km/h NE
2026-05-08 20:00 14.9 °C 60 % 0.0 mm 5.0 km/h N